Springfield, Georgia
Current Conditions -  °F | °C
As of 11:53 AM on Friday 19 Dec 2014 (Local Time) from KSAV Reporting Station
Broken Clouds Broken Clouds  
Wind Chill: 59°   Ceiling: 15000
Heat Index: 59°   Visibility: 10mi
Dew Point: 40°   Wind: 3mph
Humidity: 49%   Direction: 350°N
Pressure: 30.14"   Gusts: NA
Location:  32.37°N, 81.31°W
Report Text: KSAV 191653Z 35003KT 10SM BKN150 BKN250 15/04 A3014 RMK AO2 SLP207 T01500044
Loading
Personal Weather Stations






























Interactive Weather Map New forecast layout! Learn more

10-Day Weather Forecast

Advertisements
Track Severe Weather on mobile